CMA CGM Musca — 2CAC8 — position and weather

sailwx.info

Track history (hours):
 
Tides and Currents Weather Stations Pressure Air Temp Water Temp Dewpoint Dewpoint Depression Visibility Wind Speed Wind Dir Waves Ship Positions

CMA CGM Musca

Last reported at 2014-Oct-22 04:28 UTC. Time now 2014-Oct-22 09:49 UTC.
Position N 22°08' E 114°29'.

Length 347 m; draft 13.7 m.

Type: Ship (hazmat cat A). MMSI: 235070914.

Date/timePositionNaut miles runAvg speedWind from/ knotsBaromVisibWave heightAir tempDewpointWater temp
2014-Oct-22 04:28N 22°08' E 114°29'13 0.5
2014-Oct-21 04:20N 22°18' E 114°38'8 9.3
2014-Oct-21 03:29N 22°18' E 114°47'1920.7
2014-Oct-21 02:33N 22°22' E 115°07'2920.8
2014-Oct-21 01:09N 22°27' E 115°39'5420.7
2014-Oct-20 22:31N 22°39' E 116°36'2020.7
2014-Oct-20 21:33N 22°48' E 116°55'2120.8
2014-Oct-20 20:32N 23°00' E 117°14'2120.9
2014-Oct-20 19:33N 23°12' E 117°32'2420.3
2014-Oct-20 18:22N 23°26' E 117°54'1721.5
2014-Oct-20 17:33N 23°34' E 118°11'2221.5
2014-Oct-20 16:33N 23°46' E 118°30'2222.1
2014-Oct-20 15:33N 24°02' E 118°47'2221.7
2014-Oct-20 14:33N 24°18' E 119°03'3221.8
2014-Oct-20 13:06N 24°37' E 119°31'1221.1
2014-Oct-20 12:33N 24°45' E 119°41'2221.4
2014-Oct-20 11:31N 24°57' E 120°00'25220.7
2014-Oct-19 23:19N 28°27' E 122°37'1519.4
2014-Oct-19 22:32N 28°40' E 122°46'4619.7
2014-Oct-19 20:11N 29°24' E 123°05'1219.4
2014-Oct-19 19:32N 29°36' E 123°07'2020.0
2014-Oct-19 18:32N 29°55' E 123°02'2019.9
2014-Oct-19 17:32N 30°14' E 122°56'2121.1
2014-Oct-19 16:34N 30°27' E 122°37'2018.3
2014-Oct-19 15:29N 30°33' E 122°15'1011.0
2014-Oct-19 14:33N 30°37' E 122°04'0 0.1
2014-Oct-19 12:31N 30°37' E 122°04'0 0.0
2014-Oct-19 02:07N 30°37' E 122°04'0 0.0
2014-Oct-19 01:25N 30°37' E 122°04'0 0.0
2014-Oct-18 18:14N 30°37' E 122°04'0 0.0
2014-Oct-18 17:19N 30°37' E 122°04'0 0.0
2014-Oct-18 13:03N 30°37' E 122°04'1 1.2
2014-Oct-18 12:33N 30°36' E 122°05'1111.1
2014-Oct-18 11:33N 30°33' E 122°17'1110.6
2014-Oct-18 10:33N 30°33' E 122°29'1312.9
2014-Oct-18 09:33N 30°35' E 122°44'1313.5
2014-Oct-18 08:33N 30°37' E 122°60'1413.1
2014-Oct-18 07:28N 30°44' E 123°14'1313.7
2014-Oct-18 06:31N 30°56' E 123°17'8914.0
2014-Oct-18 00:10N 32°26' E 123°18'913.9
2014-Oct-17 23:33N 32°34' E 123°18'1913.6
2014-Oct-17 22:10N 32°53' E 123°16'914.0
2014-Oct-17 21:33N 33°02' E 123°17'1413.9
2014-Oct-17 20:33N 33°15' E 123°18'1813.8
2014-Oct-17 19:15N 33°31' E 123°06'1514.1
2014-Oct-17 18:10N 33°43' E 122°55'1214.2
2014-Oct-17 17:22N 33°52' E 122°46'  
2014-Oct-12 06:13N 37°09' E 123°10'1116.3
2014-Oct-12 05:32N 37°19' E 123°03'  
Track history (hours):
 
Tides and Currents Weather Stations Pressure Air Temp Water Temp Dewpoint Dewpoint Depression Visibility Wind Speed Wind Dir Waves Ship Positions

CMA CGM Musca

Last reported at 2014-Oct-22 04:28 UTC. Time now 2014-Oct-22 09:49 UTC.
Position N 22°08' E 114°29'.

Length 347 m; draft 13.7 m.

Type: Ship (hazmat cat A). MMSI: 235070914.

Date/timePositionNaut miles runAvg speedWind from/ knotsBaromVisibWave heightAir tempDewpointWater temp
2014-Oct-22 04:28N 22°08' E 114°29'13 0.5
2014-Oct-21 04:20N 22°18' E 114°38'8 9.3
2014-Oct-21 03:29N 22°18' E 114°47'1920.7
2014-Oct-21 02:33N 22°22' E 115°07'2920.8
2014-Oct-21 01:09N 22°27' E 115°39'5420.7
2014-Oct-20 22:31N 22°39' E 116°36'2020.7
2014-Oct-20 21:33N 22°48' E 116°55'2120.8
2014-Oct-20 20:32N 23°00' E 117°14'2120.9
2014-Oct-20 19:33N 23°12' E 117°32'2420.3
2014-Oct-20 18:22N 23°26' E 117°54'1721.5
2014-Oct-20 17:33N 23°34' E 118°11'2221.5
2014-Oct-20 16:33N 23°46' E 118°30'2222.1
2014-Oct-20 15:33N 24°02' E 118°47'2221.7
2014-Oct-20 14:33N 24°18' E 119°03'3221.8
2014-Oct-20 13:06N 24°37' E 119°31'1221.1
2014-Oct-20 12:33N 24°45' E 119°41'2221.4
2014-Oct-20 11:31N 24°57' E 120°00'25220.7
2014-Oct-19 23:19N 28°27' E 122°37'1519.4
2014-Oct-19 22:32N 28°40' E 122°46'4619.7
2014-Oct-19 20:11N 29°24' E 123°05'1219.4
2014-Oct-19 19:32N 29°36' E 123°07'2020.0
2014-Oct-19 18:32N 29°55' E 123°02'2019.9
2014-Oct-19 17:32N 30°14' E 122°56'2121.1
2014-Oct-19 16:34N 30°27' E 122°37'2018.3
2014-Oct-19 15:29N 30°33' E 122°15'1011.0
2014-Oct-19 14:33N 30°37' E 122°04'0 0.1
2014-Oct-19 12:31N 30°37' E 122°04'0 0.0
2014-Oct-19 02:07N 30°37' E 122°04'0 0.0
2014-Oct-19 01:25N 30°37' E 122°04'0 0.0
2014-Oct-18 18:14N 30°37' E 122°04'0 0.0
2014-Oct-18 17:19N 30°37' E 122°04'0 0.0
2014-Oct-18 13:03N 30°37' E 122°04'1 1.2
2014-Oct-18 12:33N 30°36' E 122°05'1111.1
2014-Oct-18 11:33N 30°33' E 122°17'1110.6
2014-Oct-18 10:33N 30°33' E 122°29'1312.9
2014-Oct-18 09:33N 30°35' E 122°44'1313.5
2014-Oct-18 08:33N 30°37' E 122°60'1413.1
2014-Oct-18 07:28N 30°44' E 123°14'1313.7
2014-Oct-18 06:31N 30°56' E 123°17'8914.0
2014-Oct-18 00:10N 32°26' E 123°18'913.9
2014-Oct-17 23:33N 32°34' E 123°18'1913.6
2014-Oct-17 22:10N 32°53' E 123°16'914.0
2014-Oct-17 21:33N 33°02' E 123°17'1413.9
2014-Oct-17 20:33N 33°15' E 123°18'1813.8
2014-Oct-17 19:15N 33°31' E 123°06'1514.1
2014-Oct-17 18:10N 33°43' E 122°55'1214.2
2014-Oct-17 17:22N 33°52' E 122°46'  
2014-Oct-12 06:13N 37°09' E 123°10'1116.3
2014-Oct-12 05:32N 37°19' E 123°03'  

Dump ship's entire track history